Time;durP1;ratioP1;P1;durP2;ratioP2;P2;SDS_P1;SDS_P2;PMS_P1;PMS_P2;Temp;Humidity;BMP_temperature;BMP_pressure;BME280_temperature;BME280_humidity;BME280_pressure;Samples;Min_cycle;Max_cycle;Signal;HPM_P1;HPM_P2
2022/08/23 00:02:40;;;;;;;140.12;15.72;;;;;;;23.82;38.46;99879.23;1809118;79;21747;-78
2022/08/23 00:05:46;;;;;;;117.55;15.93;;;;;;;23.78;38.63;99880.34;1811278;79;21169;-78
2022/08/23 00:08:53;;;;;;;126.65;13.05;;;;;;;24.02;38.27;99879.84;1810996;79;21177;-78
2022/08/23 00:12:11;;;;;;;128.53;14.33;;;;;;;23.95;38.14;99877.33;1810785;79;21232;-78
2022/08/23 00:15:20;;;;;;;116.55;14.87;;;;;;;23.83;38.34;99882.30;1811018;79;21473;-78
2022/08/23 00:18:25;;;;;;;132.78;17.55;;;;;;;23.74;38.98;99882.55;1811387;79;21160;-78
2022/08/23 00:21:32;;;;;;;172.70;17.90;;;;;;;23.65;39.00;99876.65;1811022;79;21164;-78
2022/08/23 00:24:37;;;;;;;142.28;16.30;;;;;;;23.71;38.94;99886.19;1811022;79;21235;-80
2022/08/23 00:27:44;;;;;;;151.72;17.20;;;;;;;23.53;39.26;99883.84;1811127;79;21228;-78
2022/08/23 00:30:50;;;;;;;145.53;17.65;;;;;;;23.63;39.51;99895.61;1811171;79;21243;-78
2022/08/23 00:33:57;;;;;;;132.63;16.55;;;;;;;23.74;39.17;99892.33;1809617;79;21172;-78
2022/08/23 00:37:03;;;;;;;127.10;14.23;;;;;;;23.82;39.10;99895.99;1811286;79;21220;-77
2022/08/23 00:40:08;;;;;;;129.15;15.05;;;;;;;23.68;39.04;99904.88;1811192;79;21173;-78
2022/08/23 00:50:31;;;;;;;103.80;13.60;;;;;;;23.67;39.56;99905.98;1802272;79;21212;-79
2022/08/23 00:53:34;;;;;;;118.40;14.60;;;;;;;23.51;39.95;99908.38;1801631;79;21180;-78
2022/08/23 00:56:29;;;;;;;116.62;16.07;;;;;;;23.61;39.75;99920.98;1802922;79;21180;-78
2022/08/23 00:59:35;;;;;;;109.72;17.10;;;;;;;23.45;40.27;99913.66;1803331;79;21229;-77
2022/08/23 01:02:34;;;;;;;123.15;14.13;;;;;;;23.53;40.16;99922.92;1802627;79;21212;-78
2022/08/23 01:06:00;;;;;;;91.57;11.73;;;;;;;23.30;40.39;99920.55;1802637;79;21177;-78
2022/08/23 01:09:10;;;;;;;127.45;14.38;;;;;;;23.31;40.47;99920.83;1802642;79;21496;-77
2022/08/23 01:12:32;;;;;;;151.35;17.10;;;;;;;23.34;40.69;99923.09;1802715;79;21712;-77
2022/08/23 01:15:52;;;;;;;120.08;14.50;;;;;;;23.24;40.74;99921.05;1802750;79;21173;-78
2022/08/23 01:19:00;;;;;;;123.33;15.50;;;;;;;23.18;41.04;99919.34;1802773;79;21173;-78
2022/08/23 01:22:39;;;;;;;120.45;14.87;;;;;;;23.15;41.07;99923.53;1802628;79;21181;-78
2022/08/23 01:25:44;;;;;;;96.42;12.90;;;;;;;23.21;41.04;99928.02;1802629;79;21747;-78
2022/08/23 01:28:50;;;;;;;140.43;15.32;;;;;;;23.28;41.13;99926.38;1802220;79;21773;-78
2022/08/23 01:31:55;;;;;;;111.45;12.60;;;;;;;23.05;41.46;99923.43;1802619;79;21181;-78
2022/08/23 01:35:01;;;;;;;121.97;14.93;;;;;;;22.96;41.51;99916.70;1802584;79;21169;-78
2022/08/23 01:38:07;;;;;;;94.80;11.53;;;;;;;22.94;41.73;99923.08;1802636;79;21181;-77
2022/08/23 01:41:14;;;;;;;110.78;13.30;;;;;;;22.82;41.92;99920.98;1801134;79;21185;-78
2022/08/23 01:44:20;;;;;;;101.27;15.10;;;;;;;22.89;41.83;99925.83;1801098;79;21212;-78
2022/08/23 01:47:27;;;;;;;103.80;14.45;;;;;;;22.86;42.08;99928.55;1803652;79;21267;-78
2022/08/23 01:50:33;;;;;;;110.65;13.03;;;;;;;22.86;41.69;99926.33;1810424;79;21287;-77
2022/08/23 01:53:39;;;;;;;85.25;12.18;;;;;;;22.77;41.92;99923.73;1810699;79;21196;-78
2022/08/23 01:56:45;;;;;;;75.08;12.00;;;;;;;22.75;42.03;99929.59;1811059;79;21184;-78
2022/08/23 01:59:50;;;;;;;103.50;13.53;;;;;;;22.77;41.92;99926.52;1810413;79;21192;-77
2022/08/23 02:02:57;;;;;;;87.12;12.68;;;;;;;22.67;41.97;99922.54;1810983;79;21180;-78
2022/08/23 02:06:04;;;;;;;80.75;11.40;;;;;;;22.64;41.94;99918.91;1811123;79;21161;-77
2022/08/23 02:09:11;;;;;;;114.20;12.07;;;;;;;22.56;42.26;99922.73;1781475;79;21172;-78
2022/08/23 02:12:19;;;;;;;94.90;12.10;;;;;;;22.72;41.95;99923.14;1811370;79;21181;-78
2022/08/23 02:15:28;;;;;;;91.47;13.53;;;;;;;22.28;42.34;99918.27;1808583;79;21193;-77
2022/08/23 02:18:36;;;;;;;80.22;12.03;;;;;;;22.09;43.03;99913.03;1809565;79;21172;-78
2022/08/23 02:21:41;;;;;;;80.72;12.45;;;;;;;22.04;43.07;99924.11;1811024;79;21157;-78
2022/08/23 02:24:50;;;;;;;81.87;9.90;;;;;;;22.16;42.93;99926.77;1810478;79;21771;-78
2022/08/23 02:27:57;;;;;;;81.02;11.12;;;;;;;22.12;42.86;99930.66;1811245;79;21180;-77
2022/08/23 02:30:57;;;;;;;83.80;10.35;;;;;;;22.06;42.85;99934.42;1810193;79;21212;-78
2022/08/23 02:34:03;;;;;;;70.25;11.00;;;;;;;22.09;43.12;99937.26;1810853;79;21739;-78
2022/08/23 02:37:08;;;;;;;99.28;12.88;;;;;;;21.65;43.54;99931.72;1811104;79;21723;-78
2022/08/23 02:40:15;;;;;;;73.47;9.13;;;;;;;21.83;43.63;99942.53;1811359;79;21691;-78
2022/08/23 02:43:22;;;;;;;85.12;10.90;;;;;;;21.96;43.09;99951.02;1809736;79;21177;-78
2022/08/23 02:46:28;;;;;;;59.80;9.40;;;;;;;21.93;43.29;99958.52;1810678;79;21193;-78
2022/08/23 02:49:33;;;;;;;69.27;9.15;;;;;;;22.02;43.09;99965.32;1802167;79;21213;-77
2022/08/23 02:52:39;;;;;;;71.17;10.28;;;;;;;22.02;43.06;99959.75;1802446;79;21755;-77
2022/08/23 02:55:45;;;;;;;81.02;9.88;;;;;;;22.07;42.83;99953.40;1801224;79;21184;-78
2022/08/23 02:58:52;;;;;;;83.17;9.10;;;;;;;22.09;42.86;99960.38;1802599;79;21225;-77
2022/08/23 03:01:59;;;;;;;71.70;9.85;;;;;;;22.03;43.03;99967.00;1801189;79;21256;-78
2022/08/23 03:05:04;;;;;;;55.63;9.88;;;;;;;22.10;42.92;99957.03;1801870;79;21224;-78
2022/08/23 03:08:11;;;;;;;51.68;8.18;;;;;;;21.37;44.16;99964.72;1802518;79;21217;-79
2022/08/23 03:11:25;;;;;;;62.13;7.20;;;;;;;21.39;44.20;99955.55;1802753;79;21173;-79
2022/08/23 03:14:30;;;;;;;76.87;9.40;;;;;;;21.73;43.58;99977.73;1802290;79;21216;-79
2022/08/23 03:17:36;;;;;;;51.20;7.53;;;;;;;21.80;43.73;99983.41;1802737;79;21466;-79
2022/08/23 03:20:42;;;;;;;58.02;8.03;;;;;;;22.01;43.22;99977.53;1802441;79;21183;-79
2022/08/23 03:23:48;;;;;;;47.40;6.87;;;;;;;21.90;42.82;99978.52;1802469;79;21806;-77
2022/08/23 03:26:55;;;;;;;71.72;8.78;;;;;;;21.68;43.74;99986.30;1802615;79;21224;-77
2022/08/23 03:30:01;;;;;;;57.35;6.80;;;;;;;21.69;43.78;99995.52;1801112;79;21216;-78
2022/08/23 03:33:09;;;;;;;55.17;7.40;;;;;;;21.75;43.60;99993.64;1802566;79;21232;-78
2022/08/23 03:36:16;;;;;;;59.40;9.08;;;;;;;21.76;43.57;99995.31;1801293;79;21169;-78
2022/08/23 03:39:24;;;;;;;63.00;8.03;;;;;;;21.79;43.24;99997.59;1802821;79;21724;-78
2022/08/23 03:42:29;;;;;;;61.25;8.05;;;;;;;21.80;43.06;100006.23;1802625;79;21724;-78
2022/08/23 03:45:37;;;;;;;38.20;6.95;;;;;;;21.91;42.78;100013.05;1801709;79;21213;-78
2022/08/23 03:48:43;;;;;;;56.65;8.35;;;;;;;22.07;42.33;99996.02;1802472;79;21737;-77
2022/08/23 03:51:50;;;;;;;61.88;7.87;;;;;;;22.53;41.57;100014.66;1783840;79;21228;-78
2022/08/23 03:54:57;;;;;;;40.65;7.33;;;;;;;21.78;42.45;100013.98;1811079;79;21184;-77
2022/08/23 03:57:56;;;;;;;40.38;6.95;;;;;;;21.81;42.65;100020.44;1811320;79;21176;-78
2022/08/23 04:01:02;;;;;;;48.68;8.30;;;;;;;21.97;42.13;100012.56;1811388;79;21251;-77
2022/08/23 04:04:07;;;;;;;68.67;9.43;;;;;;;22.48;41.33;100020.73;1811357;79;21160;-77
2022/08/23 04:07:30;;;;;;;50.88;8.38;;;;;;;22.59;40.59;100023.94;1810069;79;21189;-78
2022/08/23 04:10:38;;;;;;;43.78;7.55;;;;;;;22.68;40.27;100023.20;1810254;79;21228;-77
2022/08/23 04:13:44;;;;;;;43.13;8.15;;;;;;;22.69;39.94;100026.83;1811586;79;21153;-77
2022/08/23 04:16:43;;;;;;;34.92;7.85;;;;;;;22.64;39.58;100006.72;1809847;79;21311;-77
2022/08/23 04:19:50;;;;;;;40.92;8.10;;;;;;;22.58;39.93;100013.31;1811533;79;21173;-78
2022/08/23 04:23:00;;;;;;;36.85;8.48;;;;;;;22.65;40.26;100027.91;1811452;79;21220;-78
2022/08/23 04:26:07;;;;;;;36.55;8.23;;;;;;;22.86;39.74;100018.34;1810850;79;21208;-78
2022/08/23 04:29:15;;;;;;;31.33;7.60;;;;;;;22.89;39.02;100024.83;1811496;79;21173;-78
2022/08/23 04:32:22;;;;;;;38.30;8.53;;;;;;;23.05;39.37;100018.27;1784508;79;21212;-78
2022/08/23 04:35:31;;;;;;;39.35;7.97;;;;;;;23.11;38.53;100043.72;1811368;79;21227;-78
2022/08/23 04:38:35;;;;;;;31.77;5.90;;;;;;;23.20;38.57;100020.37;1811464;79;21169;-78
2022/08/23 04:45:08;;;;;;;43.35;7.60;;;;;;;23.41;38.15;100006.84;1811391;79;21156;-77
2022/08/23 04:48:16;;;;;;;32.38;5.87;;;;;;;23.42;38.00;100023.03;1810358;79;21216;-78
2022/08/23 04:51:23;;;;;;;40.28;7.33;;;;;;;23.58;37.28;100033.20;1805072;79;21236;-77
2022/08/23 04:54:28;;;;;;;34.90;5.95;;;;;;;23.79;36.86;100018.00;1802646;79;21162;-78
2022/08/23 04:57:54;;;;;;;31.68;5.50;;;;;;;23.96;37.01;100018.10;1801163;79;21228;-78
2022/08/23 05:01:06;;;;;;;27.02;5.22;;;;;;;23.93;35.93;100028.41;1802834;79;21228;-77
2022/08/23 05:04:14;;;;;;;31.73;4.95;;;;;;;24.06;36.16;100041.05;1786398;79;21157;-78
2022/08/23 05:07:20;;;;;;;36.63;5.58;;;;;;;24.05;35.61;100036.59;1801294;79;21197;-77
2022/08/23 05:10:28;;;;;;;27.65;5.08;;;;;;;24.24;35.25;100043.94;1797109;79;21213;-78
2022/08/23 05:13:35;;;;;;;23.60;4.25;;;;;;;24.38;35.76;100050.73;1786504;79;21168;-78
2022/08/23 05:16:40;;;;;;;33.20;4.40;;;;;;;24.45;35.29;100043.47;1785805;79;21169;-78
2022/08/23 05:19:45;;;;;;;24.95;4.25;;;;;;;24.56;35.20;100056.39;1791134;79;21178;-77
2022/08/23 05:22:51;;;;;;;26.48;4.58;;;;;;;24.66;34.85;100061.16;1785517;79;21158;-78
2022/08/23 05:26:00;;;;;;;26.97;4.10;;;;;;;24.76;35.19;100045.80;1773839;79;21237;-78
2022/08/23 05:29:06;;;;;;;25.35;4.45;;;;;;;24.89;34.52;100058.39;1780020;79;21165;-78
2022/08/23 05:32:14;;;;;;;17.07;3.95;;;;;;;25.01;34.71;100046.39;1755359;81;21172;-78
2022/08/23 05:35:19;;;;;;;42.45;4.90;;;;;;;25.12;34.41;100078.05;1758566;81;21163;-79
2022/08/23 05:38:26;;;;;;;31.30;3.75;;;;;;;25.14;33.94;100055.68;1788583;79;21243;-77
2022/08/23 05:41:27;;;;;;;24.50;4.05;;;;;;;25.13;34.23;100055.41;1784699;79;21146;-79
2022/08/23 05:44:21;;;;;;;12.18;3.60;;;;;;;25.24;33.34;100068.27;1791094;79;21740;-79
2022/08/23 05:47:12;;;;;;;25.10;3.87;;;;;;;25.40;33.93;100057.07;1792012;79;21228;-79
2022/08/23 05:50:21;;;;;;;22.45;4.08;;;;;;;25.52;33.99;100086.20;1717433;79;21556;-79
2022/08/23 05:53:09;;;;;;;14.93;3.42;;;;;;;25.61;34.06;100064.91;1782024;79;22404;-79
2022/08/23 05:56:31;;;;;;;;;;;;;;;25.65;34.60;100066.03;1705113;82;21205;-79
2022/08/23 05:59:36;;;;;;;24.07;4.12;;;;;;;25.73;33.47;100073.27;1731221;81;20630;-80
2022/08/23 06:02:42;;;;;;;17.87;3.98;;;;;;;25.82;33.55;100062.94;1717841;83;21242;-80
2022/08/23 06:05:50;;;;;;;29.25;4.53;;;;;;;25.98;33.52;100053.39;1789769;79;21296;-79
2022/08/23 06:08:55;;;;;;;17.95;3.98;;;;;;;25.86;33.77;100069.66;1788009;79;21173;-78
2022/08/23 06:12:00;;;;;;;17.85;3.85;;;;;;;25.91;34.37;100069.08;1784673;79;21157;-79
2022/08/23 06:15:06;;;;;;;29.10;4.78;;;;;;;25.97;34.12;100078.30;1787657;79;21280;-79
2022/08/23 06:18:13;;;;;;;21.85;3.62;;;;;;;25.94;34.13;100067.69;1782157;79;21189;-78
2022/08/23 06:21:20;;;;;;;19.90;4.12;;;;;;;26.06;34.40;100069.59;1788232;79;22128;-79
2022/08/23 06:24:26;;;;;;;23.00;3.98;;;;;;;26.25;33.43;100082.42;1783905;79;21174;-79
2022/08/23 06:27:36;;;;;;;8.43;3.47;;;;;;;26.30;33.09;100080.17;1789682;79;21219;-79
2022/08/23 06:30:44;;;;;;;16.57;4.03;;;;;;;26.23;33.53;100107.95;1743402;81;21197;-78
2022/08/23 06:33:52;;;;;;;22.80;3.67;;;;;;;26.25;33.95;100095.91;1772277;79;21193;-79
2022/08/23 06:37:17;;;;;;;16.23;3.67;;;;;;;26.40;33.86;100099.78;1847697;76;22187;-80
2022/08/23 06:40:26;;;;;;;17.57;3.60;;;;;;;26.35;33.85;100094.16;1820463;77;21216;-80
2022/08/23 06:43:39;;;;;;;20.77;4.00;;;;;;;26.47;33.50;100097.53;1822080;77;21152;-79
2022/08/23 06:47:00;;;;;;;24.45;4.47;;;;;;;26.55;33.48;100098.91;1783186;79;21220;-80
2022/08/23 06:50:05;;;;;;;29.95;4.25;;;;;;;26.67;33.80;100103.03;1811235;77;21196;-79
2022/08/23 06:53:16;;;;;;;22.32;3.90;;;;;;;26.83;33.78;100109.98;1746979;79;21216;-78
2022/08/23 06:56:39;;;;;;;23.65;3.62;;;;;;;26.85;33.31;100104.34;1792290;79;21160;-78
2022/08/23 06:59:48;;;;;;;12.43;2.80;;;;;;;26.97;33.03;100108.22;1808981;78;21292;-79
2022/08/23 07:03:11;;;;;;;16.00;3.80;;;;;;;27.06;32.61;100108.45;1804741;79;21259;-79
2022/08/23 07:06:35;;;;;;;17.65;4.47;;;;;;;27.19;33.56;100106.41;1800794;78;21188;-79
2022/08/23 07:09:41;;;;;;;22.80;3.72;;;;;;;27.31;33.02;100108.86;1807612;78;21200;-79
2022/08/23 07:12:48;;;;;;;21.95;3.40;;;;;;;27.40;33.27;100114.97;1805362;79;21188;-79
2022/08/23 07:15:54;;;;;;;15.05;3.50;;;;;;;27.50;33.08;100102.81;1806312;78;21224;-78
2022/08/23 07:19:00;;;;;;;25.65;3.92;;;;;;;27.68;32.53;100116.14;1804966;78;21224;-78
2022/08/23 07:22:05;;;;;;;20.02;4.00;;;;;;;27.85;31.35;100123.31;1812542;78;21176;-78
2022/08/23 07:25:13;;;;;;;17.77;3.55;;;;;;;27.83;32.90;100127.00;1813729;78;21778;-78
2022/08/23 07:28:21;;;;;;;18.80;3.75;;;;;;;27.90;32.64;100133.09;1801247;78;21224;-80
2022/08/23 07:31:31;;;;;;;12.23;3.30;;;;;;;27.99;32.36;100149.59;1786107;78;21204;-79
2022/08/23 07:34:38;;;;;;;18.25;2.55;;;;;;;28.17;29.76;100128.33;1809922;78;21185;-79
2022/08/23 07:37:45;;;;;;;12.33;2.50;;;;;;;28.25;30.33;100134.14;1786395;79;21225;-78
2022/08/23 07:40:54;;;;;;;16.57;3.10;;;;;;;28.34;29.35;100134.91;1797499;78;21162;-79
2022/08/23 07:44:01;;;;;;;11.18;2.65;;;;;;;28.36;29.46;100136.88;1783618;79;21245;-78
2022/08/23 07:47:11;;;;;;;9.20;2.52;;;;;;;28.42;29.37;100134.26;1767472;79;21229;-79
2022/08/23 07:50:23;;;;;;;10.50;2.65;;;;;;;28.49;30.29;100134.18;1789770;79;21819;-79
2022/08/23 07:53:29;;;;;;;13.55;2.77;;;;;;;28.57;29.20;100127.64;1793398;78;21180;-79
2022/08/23 07:56:39;;;;;;;12.47;2.40;;;;;;;28.69;29.47;100135.06;1786684;79;21185;-79
2022/08/23 07:59:51;;;;;;;9.55;2.67;;;;;;;28.85;30.48;100137.12;1788009;79;21175;-80
2022/08/23 08:03:10;;;;;;;20.95;2.95;;;;;;;29.01;29.37;100131.57;1774600;79;21177;-78
2022/08/23 08:06:52;;;;;;;16.23;2.92;;;;;;;29.11;29.05;100146.91;1787968;79;22469;-79
2022/08/23 08:10:01;;;;;;;8.70;2.42;;;;;;;29.20;27.82;100137.20;1783606;79;21222;-80
2022/08/23 08:13:13;;;;;;;10.65;2.50;;;;;;;29.32;28.84;100149.44;1786943;79;21235;-78
2022/08/23 08:16:35;;;;;;;27.48;2.50;;;;;;;29.41;27.45;100139.99;1783979;78;21174;-78
2022/08/23 08:19:44;;;;;;;11.33;2.22;;;;;;;29.53;27.29;100133.88;1765748;78;21345;-78
2022/08/23 08:23:05;;;;;;;8.70;2.17;;;;;;;29.60;28.03;100129.30;1787431;78;21497;-78
2022/08/23 08:26:20;;;;;;;8.80;2.17;;;;;;;29.68;27.83;100153.37;1753850;79;21239;-79
2022/08/23 08:29:26;;;;;;;13.45;2.58;;;;;;;29.78;28.15;100164.50;1786150;79;21164;-79
2022/08/23 08:32:33;;;;;;;11.83;2.40;;;;;;;29.78;26.84;100134.90;1786211;79;21179;-80
2022/08/23 08:35:40;;;;;;;11.68;2.22;;;;;;;29.67;26.94;100150.30;1788242;79;21242;-79
2022/08/23 08:38:46;;;;;;;16.00;2.47;;;;;;;29.71;26.58;100140.66;1792416;78;21232;-79
2022/08/23 08:42:21;;;;;;;15.65;2.00;;;;;;;29.67;27.12;100158.75;1788126;79;21189;-79
2022/08/23 08:45:34;;;;;;;8.55;2.33;;;;;;;29.73;27.27;100122.27;1788372;79;21181;-78
2022/08/23 08:48:50;;;;;;;12.40;2.42;;;;;;;29.84;27.12;100134.23;1788691;78;21240;-79
2022/08/23 08:52:05;;;;;;;11.97;2.67;;;;;;;29.89;27.27;100128.50;1787092;78;21188;-78
2022/08/23 08:55:29;;;;;;;20.65;2.55;;;;;;;29.96;26.52;100120.45;1796671;78;21286;-79
2022/08/23 08:58:38;;;;;;;16.45;2.47;;;;;;;29.96;26.52;100120.45;1765708;78;21873;-79
2022/08/23 09:01:43;;;;;;;13.32;2.35;;;;;;;30.05;28.20;100136.09;1785436;78;21179;-78
2022/08/23 09:04:54;;;;;;;10.35;2.30;;;;;;;30.09;27.32;100145.61;1791195;79;21235;-79
2022/08/23 09:08:36;;;;;;;10.50;2.60;;;;;;;30.13;26.62;100121.86;1783743;79;21819;-79
2022/08/23 09:11:52;;;;;;;12.43;2.72;;;;;;;30.23;27.33;100132.39;1792493;79;21489;-79
2022/08/23 09:15:28;;;;;;;24.07;2.72;;;;;;;30.31;27.34;100134.25;1779717;79;21579;-79
2022/08/23 09:18:38;;;;;;;17.92;2.15;;;;;;;30.38;26.76;100133.24;1786425;79;21241;-78
2022/08/23 09:22:07;;;;;;;10.88;2.15;;;;;;;30.46;27.07;100142.41;1755333;79;21173;-79
2022/08/23 09:25:16;;;;;;;13.85;2.30;;;;;;;30.72;26.73;100144.97;1785761;79;22158;-79
2022/08/23 09:28:30;;;;;;;8.18;1.80;;;;;;;30.01;25.69;100130.23;1779529;79;21205;-79
2022/08/23 09:31:51;;;;;;;14.33;2.05;;;;;;;30.34;26.47;100153.35;1792260;78;21181;-79
2022/08/23 09:34:59;;;;;;;15.63;2.45;;;;;;;30.67;25.99;100154.92;1779672;78;21180;-79
2022/08/23 09:38:14;;;;;;;14.87;2.58;;;;;;;30.72;24.73;100146.95;1766030;79;22070;-79
2022/08/23 09:41:29;;;;;;;18.40;2.30;;;;;;;30.72;24.73;100146.95;1765070;79;21229;-80
2022/08/23 09:44:48;;;;;;;8.38;1.82;;;;;;;30.75;25.17;100139.28;1769927;79;22478;-80
2022/08/23 09:47:55;;;;;;;15.30;2.10;;;;;;;30.77;24.61;100141.20;1764956;80;21141;-80
2022/08/23 09:51:05;;;;;;;19.12;2.37;;;;;;;30.64;24.49;100156.98;1767462;79;21232;-80
2022/08/23 09:54:18;;;;;;;;;;;;;;;30.87;25.68;100149.48;1772754;79;21943;-79
2022/08/23 09:57:22;;;;;;;14.00;2.30;;;;;;;31.10;25.14;100134.84;1763497;79;20218;-79
2022/08/23 10:00:40;;;;;;;14.70;2.40;;;;;;;30.93;26.49;100148.20;1724632;80;21410;-78
2022/08/23 10:03:47;;;;;;;10.20;2.40;;;;;;;30.16;26.44;100147.50;1764963;79;21153;-77
2022/08/23 10:06:50;;;;;;;10.20;2.27;;;;;;;30.93;26.22;100144.55;1771392;79;21161;-78
2022/08/23 10:09:56;;;;;;;8.98;2.15;;;;;;;30.88;25.70;100146.91;1764927;79;21220;-80
2022/08/23 10:13:02;;;;;;;12.50;2.27;;;;;;;30.89;25.51;100133.62;1756415;79;21378;-79
2022/08/23 10:16:33;;;;;;;13.30;2.35;;;;;;;30.80;25.79;100149.88;1750992;79;21165;-78
2022/08/23 10:19:57;;;;;;;14.00;2.47;;;;;;;30.93;25.05;100135.50;1769465;80;21181;-79
2022/08/23 10:23:12;;;;;;;13.25;2.47;;;;;;;30.68;26.24;100144.50;1760069;79;21210;-79
2022/08/23 10:26:22;;;;;;;22.13;2.85;;;;;;;30.89;25.79;100133.62;1765090;79;21220;-79
2022/08/23 10:29:40;;;;;;;8.38;2.75;;;;;;;31.31;26.89;100150.77;1769679;79;21240;-79
2022/08/23 10:33:15;;;;;;;18.37;2.98;;;;;;;30.98;26.36;100148.09;1771071;79;21176;-79
2022/08/23 10:36:43;;;;;;;11.93;2.65;;;;;;;31.22;25.10;100154.89;1773043;79;21212;-79
2022/08/23 10:40:08;;;;;;;8.95;1.95;;;;;;;31.22;25.10;100154.89;1770197;79;21244;-79
2022/08/23 10:43:47;;;;;;;16.57;2.17;;;;;;;31.14;25.74;100135.86;1763881;80;21224;-79
2022/08/23 10:47:17;;;;;;;12.53;2.10;;;;;;;31.43;25.94;100132.68;1765515;80;21201;-80
2022/08/23 10:50:25;;;;;;;;;;;;;;;31.64;24.14;100131.59;1753521;80;21172;-79
2022/08/23 10:53:55;;;;;;;12.33;2.83;;;;;;;31.56;25.33;100128.94;1767000;79;20227;-79
2022/08/23 10:56:59;;;;;;;5.40;2.55;;;;;;;31.75;25.86;100151.36;1768447;79;21176;-79
2022/08/23 11:00:04;;;;;;;8.70;2.77;;;;;;;31.44;25.01;100150.47;1766103;79;21169;-79
2022/08/23 11:03:37;;;;;;;11.33;3.27;;;;;;;31.75;25.90;100140.05;1768698;79;21956;-79
2022/08/23 11:06:50;;;;;;;16.07;2.60;;;;;;;31.69;25.53;100137.11;1765618;79;22189;-79
2022/08/23 11:10:01;;;;;;;10.82;2.67;;;;;;;31.74;26.35;100140.38;1764363;79;21268;-79
2022/08/23 11:13:28;;;;;;;11.73;2.72;;;;;;;31.92;25.30;100122.98;1766822;79;21206;-79
2022/08/23 11:16:41;;;;;;;16.27;2.25;;;;;;;31.84;25.34;100123.77;1769068;79;21180;-79
2022/08/23 11:20:10;;;;;;;11.33;2.12;;;;;;;31.91;24.17;100146.20;1760890;79;21754;-79
2022/08/23 11:23:13;;;;;;;9.70;2.40;;;;;;;32.13;24.13;100132.58;1732158;81;21293;-78
2022/08/23 11:26:06;;;;;;;13.90;1.95;;;;;;;32.16;24.69;100135.35;1719784;82;21496;-78
2022/08/23 11:29:29;;;;;;;9.43;2.40;;;;;;;31.94;25.68;100123.48;1716010;82;21284;-77
2022/08/23 11:32:50;;;;;;;20.15;2.92;;;;;;;31.94;25.68;100123.48;1720448;82;21342;-76
2022/08/23 11:36:04;;;;;;;7.40;1.85;;;;;;;31.88;25.63;100132.69;1720404;81;21201;-79
2022/08/23 11:39:19;;;;;;;9.55;2.33;;;;;;;32.09;25.59;100125.06;1718252;82;21134;-78
2022/08/23 11:42:25;;;;;;;10.85;2.77;;;;;;;31.72;25.33;100113.86;1735462;82;21186;-79
2022/08/23 11:45:35;;;;;;;26.50;3.55;;;;;;;32.16;25.20;100113.55;1712897;80;21198;-80
2022/08/23 11:49:36;;;;;;;23.50;3.58;;;;;;;32.25;26.48;100117.26;1736099;82;21189;-81
2022/08/23 11:53:14;;;;;;;13.93;3.52;;;;;;;32.26;26.63;100107.60;1736349;81;21244;-80
2022/08/23 11:56:50;;;;;;;9.05;2.52;;;;;;;32.22;27.66;100103.75;1742460;81;21204;-79
2022/08/23 12:00:26;;;;;;;14.80;2.22;;;;;;;32.08;24.73;100110.67;1714976;81;21232;-78
2022/08/23 12:03:44;;;;;;;7.70;2.20;;;;;;;32.08;24.73;100110.67;1740754;81;21212;-79
2022/08/23 12:07:01;;;;;;;11.93;2.50;;;;;;;32.09;24.60;100113.20;1771467;80;21165;-79
2022/08/23 12:10:08;;;;;;;10.35;2.90;;;;;;;31.79;25.45;100106.32;1747125;81;21208;-80
2022/08/23 12:13:34;;;;;;;11.30;2.72;;;;;;;32.28;23.87;100112.95;1742769;81;21218;-79
2022/08/23 12:16:44;;;;;;;7.60;2.27;;;;;;;32.28;24.69;100108.13;1709148;82;21208;-79
2022/08/23 12:20:14;;;;;;;19.55;2.90;;;;;;;32.29;25.12;100135.25;1760938;79;21247;-78
2022/08/23 12:23:23;;;;;;;13.93;2.70;;;;;;;32.18;25.55;100107.56;1743933;80;21354;-80
2022/08/23 12:26:57;;;;;;;7.97;2.58;;;;;;;31.60;25.94;100115.59;1733546;80;21192;-79
2022/08/23 12:30:33;;;;;;;7.55;2.25;;;;;;;31.93;25.60;100121.83;1766631;80;21177;-79
2022/08/23 12:34:04;;;;;;;15.05;3.50;;;;;;;32.01;25.30;100121.88;1772505;80;21200;-79
2022/08/23 12:37:41;;;;;;;6.72;3.15;;;;;;;32.21;27.04;100106.91;1772810;79;21180;-79
2022/08/23 12:41:02;;;;;;;9.80;3.05;;;;;;;32.10;26.49;100113.45;1740371;81;21194;-80
2022/08/23 12:44:09;;;;;;;9.45;3.22;;;;;;;31.97;27.32;100105.30;1715815;82;21156;-80
2022/08/23 12:47:04;;;;;;;13.60;3.17;;;;;;;32.25;25.17;100111.59;1710299;83;21174;-80
2022/08/23 12:50:12;;;;;;;10.48;2.72;;;;;;;31.85;25.88;100112.70;1693310;81;21546;-81
2022/08/23 12:53:16;;;;;;;13.13;3.20;;;;;;;31.86;26.14;100114.39;1700204;83;21217;-79
2022/08/23 12:56:31;;;;;;;19.00;3.30;;;;;;;32.18;25.03;100106.14;1719716;81;21441;-79
2022/08/23 12:59:53;;;;;;;14.35;2.70;;;;;;;32.24;25.62;100119.84;1723889;81;21180;-79
2022/08/23 13:03:09;;;;;;;21.07;3.40;;;;;;;32.15;26.16;100110.47;1711000;83;21221;-80
2022/08/23 13:06:19;;;;;;;27.67;3.55;;;;;;;32.42;25.59;100100.11;1713250;83;21344;-80
2022/08/23 13:09:41;;;;;;;12.28;2.70;;;;;;;32.17;25.64;100105.89;1718176;83;21200;-79
2022/08/23 13:12:47;;;;;;;7.75;3.17;;;;;;;32.51;24.71;100109.47;1714274;83;21289;-79
2022/08/23 13:16:00;;;;;;;13.60;3.20;;;;;;;32.29;25.53;100115.45;1699776;81;21156;-79
2022/08/23 13:19:36;;;;;;;15.78;3.72;;;;;;;32.45;25.72;100102.30;1705197;82;21489;-79
2022/08/23 13:22:43;;;;;;;17.25;3.65;;;;;;;32.11;26.00;100103.80;1701234;82;21249;-79
2022/08/23 13:25:50;;;;;;;18.67;3.90;;;;;;;31.34;26.61;100111.16;1679762;82;21228;-79
2022/08/23 13:29:15;;;;;;;11.40;3.80;;;;;;;31.53;26.46;100094.27;1699442;82;21189;-79
2022/08/23 13:32:44;;;;;;;15.25;4.12;;;;;;;31.41;26.41;100115.77;1705771;83;21515;-80
2022/08/23 13:35:52;;;;;;;16.73;3.40;;;;;;;31.45;25.14;100104.09;1718662;81;21468;-79
2022/08/23 13:38:59;;;;;;;10.15;3.20;;;;;;;31.53;25.85;100097.09;1724225;83;21292;-79
2022/08/23 13:42:05;;;;;;;9.00;3.20;;;;;;;31.47;25.90;100101.19;1698641;82;21247;-80
2022/08/23 13:45:21;;;;;;;11.93;3.17;;;;;;;31.57;25.97;100126.94;1730533;82;21554;-79
2022/08/23 13:48:39;;;;;;;10.40;3.05;;;;;;;31.41;25.90;100110.95;1730601;82;21161;-79
2022/08/23 13:51:49;;;;;;;13.43;3.40;;;;;;;31.39;26.13;100095.50;1713099;83;21245;-79
2022/08/23 13:54:57;;;;;;;17.20;3.22;;;;;;;31.46;25.94;100107.17;1714941;82;22232;-80
2022/08/23 13:58:03;;;;;;;13.80;3.20;;;;;;;31.38;25.35;100106.52;1742923;82;21224;-80
2022/08/23 14:01:09;;;;;;;16.15;3.30;;;;;;;31.53;25.34;100118.87;1742546;82;21217;-80
2022/08/23 14:04:14;;;;;;;10.82;2.80;;;;;;;31.22;26.80;100105.45;1742594;82;22180;-79
2022/08/23 14:07:20;;;;;;;9.43;2.62;;;;;;;31.45;25.98;100111.16;1742343;82;21189;-79
2022/08/23 14:10:28;;;;;;;8.65;2.92;;;;;;;31.66;26.32;100112.30;1742226;82;21212;-80
2022/08/23 14:13:36;;;;;;;15.45;2.85;;;;;;;31.35;25.79;100102.94;1713139;83;21238;-79
2022/08/23 14:16:43;;;;;;;13.00;2.80;;;;;;;31.34;25.96;100098.45;1714260;83;21209;-79
2022/08/23 14:19:48;;;;;;;10.78;2.72;;;;;;;31.02;26.87;100097.47;1714562;83;21224;-79
2022/08/23 14:22:56;;;;;;;15.03;2.80;;;;;;;31.01;26.57;100100.04;1713674;83;21196;-79
2022/08/23 14:26:02;;;;;;;9.05;2.83;;;;;;;31.17;26.44;100099.92;1714801;82;21169;-79
2022/08/23 14:29:08;;;;;;;22.32;3.20;;;;;;;31.13;27.01;100103.12;1713208;83;21660;-79
2022/08/23 14:32:14;;;;;;;8.93;2.67;;;;;;;31.12;26.14;100107.11;1713148;83;21256;-79
2022/08/23 14:35:14;;;;;;;9.88;2.70;;;;;;;31.03;27.69;100096.30;1714923;83;21208;-79
2022/08/23 14:38:23;;;;;;;12.50;2.67;;;;;;;31.01;26.72;100098.05;1713730;83;21213;-79
2022/08/23 14:41:29;;;;;;;12.75;2.77;;;;;;;31.11;26.65;100094.14;1714614;82;21232;-79
2022/08/23 14:44:34;;;;;;;11.73;2.72;;;;;;;31.10;26.60;100085.42;1712188;83;21241;-78
2022/08/23 14:47:41;;;;;;;16.62;3.60;;;;;;;31.05;26.72;100089.75;1711515;83;21267;-79
2022/08/23 14:50:48;;;;;;;12.25;2.67;;;;;;;30.98;26.27;100099.25;1710701;83;21502;-79
2022/08/23 14:53:54;;;;;;;10.72;2.70;;;;;;;30.93;26.68;100091.73;1769079;81;21724;-79